createdAt,value
2023-04-08T00:00:06.369Z,73.48
2023-04-08T00:01:06.404Z,73.27
2023-04-08T00:02:06.483Z,73.10
2023-04-08T00:03:06.447Z,72.99
2023-04-08T00:04:06.564Z,72.76
2023-04-08T00:05:06.384Z,72.65
2023-04-08T00:06:06.423Z,72.63
2023-04-08T00:07:06.394Z,72.75
2023-04-08T00:08:06.395Z,72.75
2023-04-08T00:09:06.394Z,72.94
2023-04-08T00:10:06.394Z,72.93
2023-04-08T00:11:06.413Z,73.08
2023-04-08T00:12:06.419Z,72.85
2023-04-08T00:13:06.469Z,72.78
2023-04-08T00:14:06.420Z,73.06
2023-04-08T00:15:06.398Z,73.12
2023-04-08T00:16:06.394Z,72.90
2023-04-08T00:17:06.587Z,72.74
2023-04-08T00:18:06.427Z,72.31
2023-04-08T00:19:06.386Z,72.30
2023-04-08T00:20:06.376Z,72.04
2023-04-08T00:21:06.370Z,72.12
2023-04-08T00:22:06.412Z,72.21
2023-04-08T00:23:06.399Z,71.04
2023-04-08T00:24:06.413Z,70.10
2023-04-08T00:25:06.434Z,69.86
2023-04-08T00:26:06.426Z,69.96
2023-04-08T00:27:06.464Z,70.44
2023-04-08T00:28:06.473Z,70.84
2023-04-08T00:29:06.434Z,71.29
2023-04-08T00:30:06.475Z,72.75
2023-04-08T00:31:06.549Z,73.32
2023-04-08T00:32:06.629Z,73.51
2023-04-08T00:33:06.675Z,73.60
2023-04-08T00:34:06.720Z,73.48
2023-04-08T00:35:06.802Z,73.25
2023-04-08T00:36:06.861Z,72.92
2023-04-08T00:37:06.936Z,72.57
2023-04-08T00:38:06.982Z,71.55
2023-04-08T00:39:07.020Z,71.26
2023-04-08T00:40:07.076Z,70.88
2023-04-08T00:41:07.108Z,70.68
2023-04-08T00:42:07.141Z,70.52
2023-04-08T00:43:07.167Z,70.10
2023-04-08T00:44:07.198Z,69.71
2023-04-08T00:45:07.218Z,69.51
2023-04-08T00:46:07.304Z,69.21
2023-04-08T00:47:07.274Z,69.59
2023-04-08T00:48:07.297Z,69.65
2023-04-08T00:49:07.337Z,68.52
2023-04-08T00:50:07.377Z,68.38
2023-04-08T00:51:07.410Z,68.31
2023-04-08T00:52:07.469Z,68.15
2023-04-08T00:53:07.472Z,68.30
2023-04-08T00:54:07.532Z,68.50
2023-04-08T00:55:07.587Z,69.04
2023-04-08T00:56:07.631Z,69.06
2023-04-08T00:57:07.684Z,69.28
2023-04-08T00:58:07.734Z,68.93
2023-04-08T00:59:07.782Z,70.62
2023-04-08T01:00:07.854Z,71.25
2023-04-08T01:01:07.949Z,71.49
2023-04-08T01:02:08.106Z,71.27
2023-04-08T01:03:08.417Z,70.77
2023-04-08T01:04:08.209Z,70.09
2023-04-08T01:05:08.154Z,70.17
2023-04-08T01:06:08.226Z,70.23
2023-04-08T01:07:08.309Z,70.55
2023-04-08T01:08:08.367Z,70.75
2023-04-08T01:09:08.413Z,70.71
2023-04-08T01:10:08.467Z,70.63
2023-04-08T01:11:08.518Z,70.53
2023-04-08T01:12:08.603Z,70.52
2023-04-08T01:13:08.665Z,70.52
2023-04-08T01:14:08.664Z,70.54
2023-04-08T01:15:08.727Z,70.40
2023-04-08T01:16:08.824Z,70.19
2023-04-08T01:17:08.820Z,70.08
2023-04-08T01:18:08.931Z,70.13
2023-04-08T01:19:08.954Z,70.60
2023-04-08T01:20:09.019Z,70.68
2023-04-08T01:21:09.060Z,70.58
2023-04-08T01:22:09.122Z,70.43
2023-04-08T01:23:09.215Z,70.38
2023-04-08T01:24:09.259Z,70.38
2023-04-08T01:25:09.320Z,70.43
2023-04-08T01:26:09.370Z,71.12
2023-04-08T01:27:09.424Z,71.21
2023-04-08T01:28:09.470Z,71.09
2023-04-08T01:29:09.507Z,71.11
2023-04-08T01:30:09.558Z,71.04
2023-04-08T01:31:09.607Z,71.08
2023-04-08T01:32:09.682Z,71.06
2023-04-08T01:33:09.701Z,70.84
2023-04-08T01:34:09.785Z,71.14
2023-04-08T01:35:09.810Z,71.14
2023-04-08T01:36:09.838Z,71.59
2023-04-08T01:37:09.855Z,71.43
2023-04-08T01:38:09.867Z,71.41
2023-04-08T01:39:09.919Z,71.36
2023-04-08T01:40:09.924Z,71.40
2023-04-08T01:41:09.951Z,71.34
2023-04-08T01:42:10.026Z,71.39
2023-04-08T01:43:10.017Z,71.80
2023-04-08T01:44:10.052Z,71.86
2023-04-08T01:45:10.108Z,72.10
2023-04-08T01:46:10.210Z,72.16
2023-04-08T01:47:10.277Z,71.97
2023-04-08T01:48:10.305Z,71.79
2023-04-08T01:49:10.364Z,71.75
2023-04-08T01:50:10.443Z,72.07
2023-04-08T01:51:10.468Z,72.59
2023-04-08T01:52:10.574Z,72.55
2023-04-08T01:53:10.564Z,72.71
2023-04-08T01:54:10.615Z,72.14
2023-04-08T01:55:10.680Z,71.81
2023-04-08T01:56:10.706Z,69.54
2023-04-08T01:57:10.754Z,69.77
2023-04-08T01:58:10.812Z,69.98
2023-04-08T01:59:10.880Z,70.12
2023-04-08T02:00:10.932Z,70.59
2023-04-08T02:01:10.992Z,70.76
2023-04-08T02:02:11.146Z,71.01
2023-04-08T02:03:11.269Z,71.35
2023-04-08T02:04:11.347Z,71.65
2023-04-08T02:05:11.179Z,71.74
2023-04-08T02:06:11.218Z,71.92
2023-04-08T02:07:11.198Z,71.82
2023-04-08T02:08:11.190Z,71.82
2023-04-08T02:09:11.192Z,71.78
2023-04-08T02:10:11.213Z,71.69
2023-04-08T02:11:11.247Z,71.41
2023-04-08T02:12:11.298Z,71.25
2023-04-08T02:13:11.333Z,71.12
2023-04-08T02:14:11.412Z,70.92
2023-04-08T02:15:11.416Z,71.08
2023-04-08T02:16:11.479Z,71.30
2023-04-08T02:17:11.460Z,71.40
2023-04-08T02:18:11.554Z,71.46
2023-04-08T02:19:11.529Z,71.45
2023-04-08T02:20:11.588Z,71.34
2023-04-08T02:21:11.671Z,71.24
2023-04-08T02:22:11.733Z,71.18
2023-04-08T02:23:11.772Z,71.76
2023-04-08T02:24:11.809Z,71.66
2023-04-08T02:25:11.888Z,71.60
2023-04-08T02:26:11.931Z,71.52
2023-04-08T02:27:11.980Z,71.35
2023-04-08T02:28:12.041Z,71.28
2023-04-08T02:29:12.082Z,71.24
2023-04-08T02:30:12.149Z,71.13
2023-04-08T02:31:13.399Z,71.05
2023-04-08T02:32:12.293Z,70.79
2023-04-08T02:33:12.425Z,70.74
2023-04-08T02:34:12.366Z,70.84
2023-04-08T02:35:12.374Z,71.18
2023-04-08T02:36:12.396Z,71.24
2023-04-08T02:37:12.417Z,71.45
2023-04-08T02:38:12.559Z,71.48
2023-04-08T02:39:12.476Z,71.58
2023-04-08T02:40:12.524Z,71.67
2023-04-08T02:41:12.566Z,71.61
2023-04-08T02:42:12.613Z,71.67
2023-04-08T02:43:12.682Z,71.71
2023-04-08T02:44:12.682Z,71.70
2023-04-08T02:45:12.733Z,71.56
2023-04-08T02:46:12.780Z,71.56
2023-04-08T02:47:12.736Z,71.54
2023-04-08T02:48:12.800Z,71.82
2023-04-08T02:49:12.850Z,71.81
2023-04-08T02:50:12.905Z,71.58
2023-04-08T02:51:12.972Z,71.66
2023-04-08T02:52:13.024Z,71.75
2023-04-08T02:53:13.072Z,71.88
2023-04-08T02:54:13.236Z,71.76
2023-04-08T02:55:13.161Z,71.51
2023-04-08T02:56:13.177Z,71.62
2023-04-08T02:57:13.233Z,72.01
2023-04-08T02:58:13.309Z,72.10
2023-04-08T02:59:13.394Z,72.09
2023-04-08T03:00:13.479Z,71.95
2023-04-08T03:01:13.581Z,71.94
2023-04-08T03:02:13.706Z,71.93
2023-04-08T03:03:13.801Z,71.97
2023-04-08T03:04:13.755Z,71.98
2023-04-08T03:05:13.798Z,72.05
2023-04-08T03:06:13.816Z,72.09
2023-04-08T03:07:13.851Z,72.09
2023-04-08T03:08:13.886Z,72.06
2023-04-08T03:09:13.898Z,71.85
2023-04-08T03:10:13.945Z,72.00
2023-04-08T03:11:13.928Z,72.31
2023-04-08T03:12:13.995Z,72.47
2023-04-08T03:13:14.067Z,72.49
2023-04-08T03:14:14.088Z,72.24
2023-04-08T03:15:14.145Z,72.08
2023-04-08T03:16:14.229Z,72.07
2023-04-08T03:17:14.183Z,71.69
2023-04-08T03:18:14.233Z,71.45
2023-04-08T03:19:14.228Z,71.30
2023-04-08T03:20:14.231Z,71.40
2023-04-08T03:21:14.230Z,71.69
2023-04-08T03:22:14.244Z,71.60
2023-04-08T03:23:14.264Z,71.41
2023-04-08T03:24:14.309Z,71.47
2023-04-08T03:25:14.353Z,71.67
2023-04-08T03:26:14.428Z,71.42
2023-04-08T03:27:14.459Z,71.79
2023-04-08T03:28:14.475Z,72.19
2023-04-08T03:29:21.174Z,72.18
2023-04-08T03:30:14.578Z,71.99
2023-04-08T03:31:14.618Z,72.30
2023-04-08T03:32:14.660Z,72.25
2023-04-08T03:33:14.701Z,72.20
2023-04-08T03:34:14.729Z,72.24
2023-04-08T03:35:14.762Z,72.10
2023-04-08T03:36:14.783Z,72.06
2023-04-08T03:37:14.803Z,72.07
2023-04-08T03:38:14.822Z,72.37
2023-04-08T03:39:14.844Z,72.94
2023-04-08T03:40:14.863Z,73.23
2023-04-08T03:41:14.889Z,73.51
2023-04-08T03:42:14.940Z,73.37
2023-04-08T03:43:14.901Z,73.25
2023-04-08T03:44:14.932Z,73.15
2023-04-08T03:45:14.969Z,72.90
2023-04-08T03:46:15.012Z,73.19
2023-04-08T03:47:15.018Z,73.57
2023-04-08T03:48:15.041Z,73.91
2023-04-08T03:49:15.067Z,73.68
2023-04-08T03:50:15.093Z,73.50
2023-04-08T03:51:15.192Z,73.56
2023-04-08T03:52:15.286Z,73.54
2023-04-08T03:53:15.373Z,73.57
2023-04-08T03:54:15.458Z,73.63
2023-04-08T03:55:15.525Z,73.78
2023-04-08T03:56:15.597Z,73.93
2023-04-08T03:57:15.661Z,74.13
2023-04-08T03:58:15.768Z,74.31
2023-04-08T03:59:15.832Z,74.32
2023-04-08T04:00:15.954Z,74.27
2023-04-08T04:01:15.962Z,74.34
2023-04-08T04:02:16.177Z,74.49
2023-04-08T04:03:16.293Z,74.61
2023-04-08T04:04:16.504Z,74.62
2023-04-08T04:05:16.395Z,74.63
2023-04-08T04:06:16.536Z,74.65
2023-04-08T04:07:16.551Z,74.36
2023-04-08T04:08:16.614Z,74.28
2023-04-08T04:09:16.669Z,74.46
2023-04-08T04:10:16.703Z,74.69
2023-04-08T04:11:16.776Z,74.42
2023-04-08T04:12:16.868Z,74.63
2023-04-08T04:13:16.961Z,74.59
2023-04-08T04:14:17.035Z,74.49
2023-04-08T04:15:17.056Z,74.48
2023-04-08T04:16:17.160Z,74.41
2023-04-08T04:17:17.147Z,74.38
2023-04-08T04:18:17.228Z,74.49
2023-04-08T04:19:17.254Z,74.47
2023-04-08T04:20:17.288Z,74.37
2023-04-08T04:21:17.353Z,74.20
2023-04-08T04:22:17.441Z,74.03
2023-04-08T04:23:17.530Z,74.31
2023-04-08T04:24:17.565Z,74.28
2023-04-08T04:25:17.655Z,74.13
2023-04-08T04:26:17.674Z,73.85
2023-04-08T04:27:17.795Z,73.87
2023-04-08T04:28:17.793Z,73.92
2023-04-08T04:29:17.837Z,73.60
2023-04-08T04:30:17.920Z,73.40
2023-04-08T04:31:17.972Z,73.26
2023-04-08T04:32:18.009Z,73.12
2023-04-08T04:33:18.081Z,73.04
2023-04-08T04:34:18.155Z,72.99
2023-04-08T04:35:18.322Z,72.92
2023-04-08T04:36:18.302Z,72.81
2023-04-08T04:37:18.352Z,72.72
2023-04-08T04:38:18.420Z,72.95
2023-04-08T04:39:18.444Z,72.90
2023-04-08T04:40:18.480Z,72.94
2023-04-08T04:41:18.538Z,72.91
2023-04-08T04:42:18.543Z,73.17
2023-04-08T04:43:18.572Z,73.22
2023-04-08T04:44:18.599Z,73.28
2023-04-08T04:45:18.625Z,73.01
2023-04-08T04:46:18.764Z,72.69
2023-04-08T04:47:18.730Z,72.41
2023-04-08T04:48:18.785Z,72.39
2023-04-08T04:49:18.834Z,72.17
2023-04-08T04:50:18.884Z,72.29
2023-04-08T04:51:18.921Z,72.76
2023-04-08T04:52:18.960Z,72.82
2023-04-08T04:53:19.005Z,72.65
2023-04-08T04:54:19.047Z,72.49
2023-04-08T04:55:19.089Z,72.48
2023-04-08T04:56:19.128Z,72.55
2023-04-08T04:57:19.161Z,72.50
2023-04-08T04:58:19.192Z,72.43
2023-04-08T04:59:19.215Z,72.45
2023-04-08T05:00:19.248Z,72.75
2023-04-08T05:01:19.297Z,73.10
2023-04-08T05:02:19.447Z,73.47
2023-04-08T05:03:19.439Z,73.43
2023-04-08T05:04:19.381Z,73.45
2023-04-08T05:05:19.506Z,73.42
2023-04-08T05:06:19.480Z,73.33
2023-04-08T05:07:19.540Z,73.26
2023-04-08T05:08:19.573Z,73.07
2023-04-08T05:09:19.606Z,73.10
2023-04-08T05:10:19.667Z,73.06
2023-04-08T05:11:19.704Z,72.95
2023-04-08T05:12:19.768Z,72.90
2023-04-08T05:13:19.804Z,72.77
2023-04-08T05:14:19.831Z,73.06
2023-04-08T05:15:19.851Z,73.38
2023-04-08T05:16:19.919Z,73.33
2023-04-08T05:17:19.936Z,73.11
2023-04-08T05:18:19.958Z,73.35
2023-04-08T05:19:19.952Z,73.21
2023-04-08T05:20:19.982Z,73.04
2023-04-08T05:21:20.007Z,72.80
2023-04-08T05:22:20.046Z,72.71
2023-04-08T05:23:20.063Z,72.67
2023-04-08T05:24:20.093Z,72.91
2023-04-08T05:25:20.137Z,72.87
2023-04-08T05:26:20.445Z,72.95
2023-04-08T05:27:20.232Z,73.23
2023-04-08T05:28:20.277Z,72.96
2023-04-08T05:29:20.344Z,72.82
2023-04-08T05:30:20.404Z,72.10
2023-04-08T05:31:20.536Z,72.27
2023-04-08T05:32:20.600Z,72.04
2023-04-08T05:33:20.691Z,72.05
2023-04-08T05:34:20.799Z,72.01
2023-04-08T05:35:20.867Z,72.00
2023-04-08T05:36:20.908Z,71.90
2023-04-08T05:37:20.941Z,71.91
2023-04-08T05:38:20.989Z,71.90
2023-04-08T05:39:21.034Z,71.67
2023-04-08T05:40:21.058Z,71.55
2023-04-08T05:41:21.087Z,71.43
2023-04-08T05:42:21.123Z,71.38
2023-04-08T05:43:21.154Z,71.30
2023-04-08T05:44:21.198Z,71.53
2023-04-08T05:45:21.248Z,71.79
2023-04-08T05:46:21.333Z,71.73
2023-04-08T05:47:21.381Z,71.64
2023-04-08T05:48:21.386Z,71.52
2023-04-08T05:49:21.417Z,71.41
2023-04-08T05:50:21.439Z,71.46
2023-04-08T05:51:21.451Z,71.43
2023-04-08T05:52:21.427Z,71.32
2023-04-08T05:53:21.459Z,71.35
2023-04-08T05:54:21.464Z,71.33
2023-04-08T05:55:21.493Z,71.36
2023-04-08T05:56:21.570Z,71.32
2023-04-08T05:57:21.562Z,71.33
2023-04-08T05:58:21.639Z,71.39
2023-04-08T05:59:21.697Z,71.06
2023-04-08T06:00:21.792Z,70.91
2023-04-08T06:01:21.844Z,70.81
2023-04-08T06:02:22.073Z,70.60
2023-04-08T06:03:22.280Z,70.71
2023-04-08T06:04:22.018Z,70.72
2023-04-08T06:05:21.977Z,70.96
2023-04-08T06:06:22.043Z,71.20
2023-04-08T06:07:22.063Z,71.49
2023-04-08T06:08:22.115Z,71.58
2023-04-08T06:09:22.157Z,71.72
2023-04-08T06:10:22.246Z,72.11
2023-04-08T06:11:22.339Z,72.35
2023-04-08T06:12:22.412Z,72.62
2023-04-08T06:13:22.501Z,72.82
2023-04-08T06:14:22.564Z,72.84
2023-04-08T06:15:22.618Z,72.82
2023-04-08T06:16:22.791Z,73.03
2023-04-08T06:17:22.774Z,72.93
2023-04-08T06:18:22.790Z,72.80
2023-04-08T06:19:22.812Z,72.60
2023-04-08T06:20:22.819Z,72.33
2023-04-08T06:21:22.828Z,72.18
2023-04-08T06:22:22.871Z,72.15
2023-04-08T06:23:22.855Z,71.98
2023-04-08T06:24:23.054Z,71.76
2023-04-08T06:25:22.885Z,71.54
2023-04-08T06:26:22.907Z,71.49
2023-04-08T06:27:23.596Z,71.50
2023-04-08T06:28:22.943Z,71.56
2023-04-08T06:29:23.015Z,71.42
2023-04-08T06:30:23.045Z,71.22
2023-04-08T06:31:23.149Z,71.14
2023-04-08T06:32:23.195Z,71.05
2023-04-08T06:33:23.233Z,71.11
2023-04-08T06:34:23.300Z,70.94
2023-04-08T06:35:23.368Z,70.86
2023-04-08T06:36:23.413Z,70.65
2023-04-08T06:37:23.460Z,70.53
2023-04-08T06:38:23.793Z,70.21
2023-04-08T06:39:23.554Z,70.03
2023-04-08T06:40:23.591Z,69.87
2023-04-08T06:41:23.594Z,69.42
2023-04-08T06:42:23.614Z,68.85
2023-04-08T06:43:23.614Z,68.52
2023-04-08T06:44:23.618Z,68.36
2023-04-08T06:45:24.455Z,68.18
2023-04-08T06:46:23.669Z,68.05
2023-04-08T06:47:23.665Z,67.83
2023-04-08T06:48:23.609Z,67.59
2023-04-08T06:49:23.623Z,67.46
2023-04-08T06:50:23.631Z,67.32
2023-04-08T06:51:23.659Z,67.43
2023-04-08T06:52:23.654Z,67.35
2023-04-08T06:53:23.663Z,67.21
2023-04-08T06:54:23.690Z,67.44
2023-04-08T06:55:23.681Z,66.95
2023-04-08T06:56:23.735Z,66.59
2023-04-08T06:57:23.712Z,66.83
2023-04-08T06:58:23.717Z,67.42
2023-04-08T06:59:23.778Z,67.30
2023-04-08T07:00:23.820Z,67.74
2023-04-08T07:01:24.028Z,67.60
2023-04-08T07:02:23.983Z,67.94
2023-04-08T07:03:24.184Z,68.12
2023-04-08T07:04:24.066Z,68.04
2023-04-08T07:05:24.074Z,68.57
2023-04-08T07:06:24.051Z,68.40
2023-04-08T07:07:24.150Z,67.97
2023-04-08T07:08:24.172Z,67.84
2023-04-08T07:09:24.228Z,68.13
2023-04-08T07:10:24.389Z,68.14
2023-04-08T07:11:24.366Z,67.72
2023-04-08T07:12:24.411Z,67.93
2023-04-08T07:13:24.450Z,67.85
2023-04-08T07:14:24.471Z,67.93
2023-04-08T07:15:24.509Z,67.23
2023-04-08T07:16:24.567Z,66.90
2023-04-08T07:17:24.556Z,66.84
2023-04-08T07:18:24.566Z,66.50
2023-04-08T07:19:24.613Z,66.63
2023-04-08T07:20:24.643Z,66.53
2023-04-08T07:21:24.610Z,66.49
2023-04-08T07:22:24.630Z,66.09
2023-04-08T07:23:24.655Z,65.70
2023-04-08T07:24:24.690Z,65.45
2023-04-08T07:25:24.746Z,65.21
2023-04-08T07:26:24.829Z,65.56
2023-04-08T07:27:24.802Z,65.80
2023-04-08T07:28:24.856Z,65.49
2023-04-08T07:29:24.841Z,65.56
2023-04-08T07:30:24.902Z,65.31
2023-04-08T07:31:24.995Z,64.76
2023-04-08T07:32:24.892Z,64.35
2023-04-08T07:33:24.809Z,64.43
2023-04-08T07:34:24.785Z,63.79
2023-04-08T07:35:24.835Z,63.06
2023-04-08T07:36:24.772Z,62.81
2023-04-08T07:37:24.739Z,62.62
2023-04-08T07:38:24.762Z,63.11
2023-04-08T07:39:24.786Z,63.11
2023-04-08T07:40:24.907Z,62.58
2023-04-08T07:41:24.822Z,62.57
2023-04-08T07:42:24.854Z,62.29
2023-04-08T07:43:24.892Z,62.60
2023-04-08T07:44:24.831Z,61.24
2023-04-08T07:45:24.877Z,60.85
2023-04-08T07:46:24.937Z,61.02
2023-04-08T07:47:24.860Z,61.42
2023-04-08T07:48:24.811Z,61.46
2023-04-08T07:49:24.841Z,61.22
2023-04-08T07:50:24.863Z,60.96
2023-04-08T07:51:24.860Z,60.99
2023-04-08T07:52:24.870Z,61.37
2023-04-08T07:53:24.853Z,61.69
2023-04-08T07:54:24.880Z,62.07
2023-04-08T07:55:24.947Z,62.03
2023-04-08T07:56:24.916Z,61.77
2023-04-08T07:57:24.920Z,62.05
2023-04-08T07:58:25.013Z,61.62
2023-04-08T07:59:24.890Z,60.25
2023-04-08T08:00:24.873Z,60.12
2023-04-08T08:01:25.475Z,59.44
2023-04-08T08:02:24.915Z,58.90
2023-04-08T08:03:25.072Z,58.88
2023-04-08T08:04:25.000Z,59.54
2023-04-08T08:05:24.807Z,59.01
2023-04-08T08:06:24.674Z,58.27
2023-04-08T08:07:24.659Z,58.02
2023-04-08T08:08:24.652Z,58.00
2023-04-08T08:09:24.634Z,56.99
2023-04-08T08:10:24.624Z,57.12
2023-04-08T08:11:24.614Z,57.30
2023-04-08T08:12:24.614Z,56.52
2023-04-08T08:13:24.615Z,55.99
2023-04-08T08:14:24.626Z,55.27
2023-04-08T08:15:24.577Z,55.41
2023-04-08T08:16:24.598Z,55.62
2023-04-08T08:17:26.357Z,55.35
2023-04-08T08:18:24.479Z,55.26
2023-04-08T08:19:24.428Z,54.98
2023-04-08T08:20:24.344Z,54.58
2023-04-08T08:21:24.282Z,54.69
2023-04-08T08:22:24.201Z,54.89
2023-04-08T08:23:24.139Z,54.53
2023-04-08T08:24:24.078Z,54.69
2023-04-08T08:25:25.971Z,54.46
2023-04-08T08:26:23.938Z,54.58
2023-04-08T08:27:23.881Z,54.81
2023-04-08T08:28:23.803Z,54.88
2023-04-08T08:29:23.744Z,55.21
2023-04-08T08:30:23.699Z,55.25
2023-04-08T08:31:23.660Z,54.93
2023-04-08T08:32:23.532Z,54.71
2023-04-08T08:33:23.448Z,54.32
2023-04-08T08:34:23.376Z,53.77
2023-04-08T08:35:23.302Z,53.75
2023-04-08T08:36:23.240Z,54.30
2023-04-08T08:37:23.166Z,53.28
2023-04-08T08:38:23.120Z,53.02
2023-04-08T08:39:23.030Z,53.44
2023-04-08T08:40:22.959Z,52.86
2023-04-08T08:41:22.912Z,52.24
2023-04-08T08:42:22.834Z,52.35
2023-04-08T08:43:22.769Z,52.11
2023-04-08T08:44:22.707Z,51.56
2023-04-08T08:45:22.637Z,51.69
2023-04-08T08:46:22.648Z,52.15
2023-04-08T08:47:22.526Z,51.57
2023-04-08T08:48:22.451Z,51.96
2023-04-08T08:49:22.371Z,51.99
2023-04-08T08:50:22.304Z,52.13
2023-04-08T08:51:22.241Z,52.15
2023-04-08T08:52:22.167Z,52.41
2023-04-08T08:53:22.100Z,52.06
2023-04-08T08:54:22.037Z,52.96
2023-04-08T08:55:41.463Z,53.18
2023-04-08T08:56:21.871Z,52.18
2023-04-08T08:57:21.799Z,51.33
2023-04-08T08:58:21.743Z,50.86
2023-04-08T08:59:21.646Z,51.28
2023-04-08T09:00:21.578Z,50.56
2023-04-08T09:01:21.509Z,51.06
2023-04-08T09:02:21.572Z,50.47
2023-04-08T09:03:21.668Z,50.02
2023-04-08T09:04:21.370Z,49.86
2023-04-08T09:05:21.326Z,50.34
2023-04-08T09:06:21.072Z,50.45
2023-04-08T09:07:20.998Z,50.61
2023-04-08T09:08:20.926Z,50.39
2023-04-08T09:09:20.847Z,50.51
2023-04-08T09:10:20.768Z,50.28
2023-04-08T09:11:20.707Z,50.46
2023-04-08T09:12:20.646Z,51.21
2023-04-08T09:13:20.568Z,51.61
2023-04-08T09:14:20.496Z,52.39
2023-04-08T09:15:20.431Z,52.91
2023-04-08T09:16:20.437Z,53.07
2023-04-08T09:17:20.285Z,52.86
2023-04-08T09:18:20.238Z,53.65
2023-04-08T09:19:20.146Z,53.30
2023-04-08T09:20:20.081Z,52.68
2023-04-08T09:21:20.005Z,52.14
2023-04-08T09:22:19.924Z,51.81
2023-04-08T09:23:19.842Z,51.49
2023-04-08T09:24:19.778Z,50.44
2023-04-08T09:25:19.710Z,50.31
2023-04-08T09:26:19.681Z,50.63
2023-04-08T09:27:19.565Z,51.30
2023-04-08T09:28:19.501Z,51.31
2023-04-08T09:29:26.241Z,51.78
2023-04-08T09:30:19.373Z,51.66
2023-04-08T09:31:19.303Z,51.52
2023-04-08T09:32:19.203Z,51.67
2023-04-08T09:33:19.130Z,51.07
2023-04-08T09:34:19.097Z,50.58
2023-04-08T09:35:18.986Z,50.09
2023-04-08T09:36:18.920Z,49.98
2023-04-08T09:37:18.829Z,49.90
2023-04-08T09:38:18.754Z,50.27
2023-04-08T09:39:18.676Z,50.36
2023-04-08T09:40:18.622Z,50.21
2023-04-08T09:41:18.536Z,50.38
2023-04-08T09:42:18.451Z,50.32
2023-04-08T09:43:18.380Z,50.36
2023-04-08T09:44:18.302Z,50.32
2023-04-08T09:45:18.224Z,50.27
2023-04-08T09:46:18.203Z,50.06
2023-04-08T09:47:18.089Z,50.37
2023-04-08T09:48:18.021Z,50.29
2023-04-08T09:49:17.941Z,50.35
2023-04-08T09:50:17.890Z,50.52
2023-04-08T09:51:17.798Z,50.08
2023-04-08T09:52:17.755Z,50.15
2023-04-08T09:53:17.669Z,51.27
2023-04-08T09:54:17.591Z,51.50
2023-04-08T09:55:17.529Z,52.23
2023-04-08T09:56:17.455Z,51.47
2023-04-08T09:57:17.368Z,51.60
2023-04-08T09:58:17.305Z,51.36
2023-04-08T09:59:17.227Z,49.17
2023-04-08T10:00:17.213Z,49.15
2023-04-08T10:01:17.200Z,49.15
2023-04-08T10:02:17.063Z,49.69
2023-04-08T10:03:17.192Z,50.00
2023-04-08T10:04:16.937Z,50.26
2023-04-08T10:05:16.771Z,47.66
2023-04-08T10:06:16.745Z,47.11
2023-04-08T10:07:16.655Z,48.32
2023-04-08T10:08:16.633Z,49.82
2023-04-08T10:09:16.582Z,49.70
2023-04-08T10:10:16.639Z,51.72
2023-04-08T10:11:16.526Z,52.61
2023-04-08T10:12:16.516Z,53.24
2023-04-08T10:13:16.492Z,53.16
2023-04-08T10:14:16.483Z,54.45
2023-04-08T10:15:16.514Z,55.02
2023-04-08T10:16:16.566Z,54.82
2023-04-08T10:17:16.597Z,54.69
2023-04-08T10:18:16.643Z,55.03
2023-04-08T10:19:16.653Z,56.23
2023-04-08T10:20:16.672Z,55.54
2023-04-08T10:21:16.686Z,55.75
2023-04-08T10:22:16.730Z,55.82
2023-04-08T10:23:16.766Z,56.71
2023-04-08T10:24:16.773Z,56.69
2023-04-08T10:25:16.865Z,56.96
2023-04-08T10:26:16.815Z,57.41
2023-04-08T10:27:15.836Z,58.52
2023-04-08T10:28:16.895Z,58.51
2023-04-08T10:29:16.936Z,58.89
2023-04-08T10:30:17.005Z,59.35
2023-04-08T10:31:17.008Z,59.81
2023-04-08T10:32:17.033Z,59.68
2023-04-08T10:33:17.048Z,59.78
2023-04-08T10:34:17.093Z,58.95
2023-04-08T10:35:17.143Z,59.63
2023-04-08T10:36:17.204Z,60.18
2023-04-08T10:37:17.234Z,60.70
2023-04-08T10:38:17.301Z,60.74
2023-04-08T10:39:17.320Z,61.25
2023-04-08T10:40:17.391Z,60.86
2023-04-08T10:41:17.415Z,60.86
2023-04-08T10:42:17.468Z,61.41
2023-04-08T10:43:18.014Z,61.97
2023-04-08T10:44:17.519Z,62.96
2023-04-08T10:45:17.538Z,63.37
2023-04-08T10:46:17.647Z,63.50
2023-04-08T10:47:17.688Z,63.88
2023-04-08T10:48:17.722Z,64.00
2023-04-08T10:49:17.765Z,65.01
2023-04-08T10:50:17.774Z,65.37
2023-04-08T10:51:17.796Z,65.58
2023-04-08T10:52:17.847Z,65.16
2023-04-08T10:53:17.890Z,66.00
2023-04-08T10:54:18.061Z,66.18
2023-04-08T10:55:17.984Z,66.75
2023-04-08T10:56:18.012Z,66.44
2023-04-08T10:57:18.127Z,66.19
2023-04-08T10:58:18.105Z,66.68
2023-04-08T10:59:18.161Z,65.85
2023-04-08T11:00:18.230Z,65.78
2023-04-08T11:01:18.504Z,65.90
2023-04-08T11:02:18.524Z,66.47
2023-04-08T11:03:18.599Z,66.21
2023-04-08T11:04:18.522Z,65.41
2023-04-08T11:05:18.499Z,65.48
2023-04-08T11:06:18.573Z,66.05
2023-04-08T11:07:18.625Z,66.44
2023-04-08T11:08:20.534Z,66.50
2023-04-08T11:09:18.707Z,67.07
2023-04-08T11:10:18.761Z,66.50
2023-04-08T11:11:18.784Z,65.79
2023-04-08T11:12:18.817Z,65.72
2023-04-08T11:13:18.803Z,66.16
2023-04-08T11:14:18.811Z,66.73
2023-04-08T11:15:18.837Z,67.11
2023-04-08T11:16:18.952Z,68.13
2023-04-08T11:17:18.921Z,68.26
2023-04-08T11:18:18.973Z,68.55
2023-04-08T11:19:19.003Z,69.53
2023-04-08T11:20:19.068Z,70.77
2023-04-08T11:21:19.108Z,70.29
2023-04-08T11:22:19.148Z,71.38
2023-04-08T11:23:19.212Z,72.03
2023-04-08T11:24:19.273Z,70.87
2023-04-08T11:25:19.351Z,71.84
2023-04-08T11:26:19.434Z,71.91
2023-04-08T11:27:19.491Z,72.84
2023-04-08T11:28:19.567Z,73.48
2023-04-08T11:29:19.647Z,73.92
2023-04-08T11:30:19.742Z,73.49
2023-04-08T11:31:21.170Z,74.21
2023-04-08T11:32:19.912Z,75.05
2023-04-08T11:33:19.985Z,74.72
2023-04-08T11:34:20.089Z,75.60
2023-04-08T11:35:20.185Z,75.84
2023-04-08T11:36:20.267Z,76.26
2023-04-08T11:37:20.360Z,76.40
2023-04-08T11:38:20.423Z,73.72
2023-04-08T11:39:20.504Z,73.51
2023-04-08T11:40:20.594Z,71.76
2023-04-08T11:41:20.656Z,70.44
2023-04-08T11:42:20.767Z,71.28
2023-04-08T11:43:20.816Z,73.50
2023-04-08T11:44:20.907Z,74.80
2023-04-08T11:45:20.990Z,75.41
2023-04-08T11:46:21.107Z,75.97
2023-04-08T11:47:21.152Z,76.16
2023-04-08T11:48:21.262Z,76.47
2023-04-08T11:49:21.316Z,76.69
2023-04-08T11:50:21.410Z,75.89
2023-04-08T11:51:21.530Z,75.41
2023-04-08T11:52:21.611Z,75.62
2023-04-08T11:53:21.762Z,75.63
2023-04-08T11:54:21.848Z,75.87
2023-04-08T11:55:21.959Z,76.21
2023-04-08T11:56:22.063Z,76.29
2023-04-08T11:57:22.181Z,75.94
2023-04-08T11:58:22.313Z,76.55
2023-04-08T11:59:22.421Z,75.51
2023-04-08T12:00:22.545Z,75.93
2023-04-08T12:01:22.647Z,75.57
2023-04-08T12:02:23.001Z,76.30
2023-04-08T12:03:22.889Z,75.60
2023-04-08T12:04:23.038Z,75.74
2023-04-08T12:05:23.076Z,76.29
2023-04-08T12:06:23.126Z,76.29
2023-04-08T12:07:23.227Z,75.40
2023-04-08T12:08:23.879Z,74.93
2023-04-08T12:09:23.362Z,74.76
2023-04-08T12:10:23.435Z,74.93
2023-04-08T12:11:23.547Z,75.13
2023-04-08T12:12:23.634Z,75.63
2023-04-08T12:13:23.724Z,73.78
2023-04-08T12:14:24.150Z,73.70
2023-04-08T12:15:23.905Z,73.69
2023-04-08T12:16:24.046Z,73.06
2023-04-08T12:17:24.123Z,73.01
2023-04-08T12:18:24.220Z,72.39
2023-04-08T12:19:24.317Z,72.64
2023-04-08T12:20:24.428Z,72.64
2023-04-08T12:21:24.501Z,73.63
2023-04-08T12:22:24.613Z,73.74
2023-04-08T12:23:24.733Z,73.26
2023-04-08T12:24:24.817Z,72.97
2023-04-08T12:25:24.920Z,73.55
2023-04-08T12:26:25.103Z,73.73
2023-04-08T12:27:25.119Z,73.22
2023-04-08T12:28:25.200Z,74.02
2023-04-08T12:29:25.328Z,74.78
2023-04-08T12:30:25.413Z,74.40
2023-04-08T12:31:25.506Z,74.72
2023-04-08T12:32:25.709Z,73.65
2023-04-08T12:33:25.662Z,74.12
2023-04-08T12:34:25.780Z,74.32
2023-04-08T12:35:25.874Z,71.32
2023-04-08T12:36:26.012Z,72.28
2023-04-08T12:37:26.015Z,73.73
2023-04-08T12:38:26.109Z,74.68
2023-04-08T12:39:26.216Z,74.81
2023-04-08T12:40:26.307Z,73.90
2023-04-08T12:41:26.400Z,73.47
2023-04-08T12:42:26.479Z,74.10
2023-04-08T12:43:26.568Z,73.99
2023-04-08T12:44:26.668Z,74.20
2023-04-08T12:45:26.802Z,74.59
2023-04-08T12:46:26.926Z,74.42
2023-04-08T12:47:27.017Z,74.01
2023-04-08T12:48:27.080Z,73.95
2023-04-08T12:49:28.037Z,74.19
2023-04-08T12:50:27.329Z,74.55
2023-04-08T12:51:27.395Z,74.49
2023-04-08T12:52:27.477Z,73.92